Terminal Aerodrome Forecast
Issued by NWS

Current Version | Previous Version | Text Only | Print | Product List | Glossary On
Versions: 1 2 3 4 5 6 7 8 9 10 11 12 13
000
FTUS45 KTFX 281721
TAFHVR
TAF
KHVR 281721Z 2818/2918 36010KT P6SM OVC070
      TEMPO 2818/2820 -SHRA BKN040
     FM290200 04007KT P6SM BKN040
     FM291600 09010KT P6SM SKC=

USA.gov is the U.S. government's official web portal to all federal, state and local government web resources and services.